Time;durP1;ratioP1;P1;durP2;ratioP2;P2;SDS_P1;SDS_P2;PMS_P1;PMS_P2;Temp;Humidity;BMP_temperature;BMP_pressure;BME280_temperature;BME280_humidity;BME280_pressure;Samples;Min_cycle;Max_cycle;Signal;HPM_P1;HPM_P2
2021/10/29 00:00:18;;;;;;;17.08;5.45;;;8.90;99.90;;;;;;4962464;29;20059;-75
2021/10/29 00:02:44;;;;;;;7.22;3.75;;;8.90;99.90;;;;;;4947615;29;20540;-75
2021/10/29 00:05:10;;;;;;;9.05;4.15;;;8.90;99.90;;;;;;4947308;29;20030;-74
2021/10/29 00:07:36;;;;;;;8.88;4.35;;;8.80;99.90;;;;;;4947187;29;20023;-75
2021/10/29 00:10:04;;;;;;;9.98;4.60;;;8.80;99.90;;;;;;4947252;29;20031;-76
2021/10/29 00:12:30;;;;;;;12.00;4.70;;;8.80;99.90;;;;;;4947377;29;20027;-75
2021/10/29 00:14:56;;;;;;;8.13;4.53;;;8.70;99.90;;;;;;4947852;29;20042;-75
2021/10/29 00:17:21;;;;;;;14.75;5.60;;;8.60;99.90;;;;;;4946885;29;20165;-75
2021/10/29 00:19:49;;;;;;;10.75;5.05;;;8.60;99.90;;;;;;4947507;29;20036;-75
2021/10/29 00:22:14;;;;;;;9.52;4.72;;;8.60;99.90;;;;;;4961049;29;20103;-74
2021/10/29 00:24:40;;;;;;;9.52;4.53;;;8.50;99.90;;;;;;4946890;29;20027;-75
2021/10/29 00:27:06;;;;;;;11.70;5.80;;;8.50;99.90;;;;;;4947673;29;20040;-74
2021/10/29 00:29:32;;;;;;;9.88;4.72;;;8.50;99.90;;;;;;4947492;29;20031;-75
2021/10/29 00:31:58;;;;;;;9.23;4.57;;;8.50;99.90;;;;;;4962327;29;20039;-75
2021/10/29 00:34:24;;;;;;;11.70;5.38;;;8.40;99.90;;;;;;4946931;29;20074;-74
2021/10/29 00:36:49;;;;;;;11.63;4.63;;;8.40;99.90;;;;;;4946785;29;20043;-75
2021/10/29 00:39:15;;;;;;;18.95;5.47;;;8.40;99.90;;;;;;4947013;29;20031;-76
2021/10/29 00:41:42;;;;;;;10.60;4.97;;;8.40;99.90;;;;;;4946582;29;20053;-75
2021/10/29 00:44:08;;;;;;;10.38;5.57;;;8.40;99.90;;;;;;4946740;29;20093;-75
2021/10/29 00:46:34;;;;;;;14.35;5.32;;;8.30;99.90;;;;;;4947011;29;20031;-76
2021/10/29 00:49:00;;;;;;;16.00;6.53;;;8.30;99.90;;;;;;4961427;29;20031;-75
2021/10/29 00:51:26;;;;;;;17.52;5.25;;;8.30;99.90;;;;;;4947200;29;20380;-75
2021/10/29 00:53:52;;;;;;;9.25;4.80;;;8.30;99.90;;;;;;4946572;29;20059;-74
2021/10/29 00:56:18;;;;;;;14.23;5.65;;;8.20;99.90;;;;;;4946466;29;20047;-74
2021/10/29 00:58:45;;;;;;;14.15;6.18;;;8.20;99.90;;;;;;4946674;29;20032;-75
2021/10/29 01:01:12;;;;;;;13.85;5.85;;;8.20;99.90;;;;;;4946393;29;20083;-75
2021/10/29 01:03:39;;;;;;;12.30;5.68;;;8.10;99.90;;;;;;4961157;29;20057;-75
2021/10/29 01:06:07;;;;;;;14.55;6.28;;;8.10;99.90;;;;;;4947061;29;20058;-74
2021/10/29 01:08:35;;;;;;;13.73;5.30;;;8.10;99.90;;;;;;4946911;29;20067;-75
2021/10/29 01:11:02;;;;;;;11.88;5.88;;;8.00;99.90;;;;;;4946401;29;20031;-75
2021/10/29 01:13:28;;;;;;;14.18;6.50;;;8.00;99.90;;;;;;4946814;29;20032;-74
2021/10/29 01:15:56;;;;;;;15.02;6.28;;;7.90;99.90;;;;;;4946842;29;20051;-74
2021/10/29 01:18:22;;;;;;;15.63;6.28;;;7.90;99.90;;;;;;4946780;29;20032;-75
2021/10/29 01:20:48;;;;;;;17.52;7.38;;;8.00;99.90;;;;;;4961311;29;20038;-75
2021/10/29 01:23:14;;;;;;;12.02;5.22;;;7.90;99.90;;;;;;4948971;29;20043;-75
2021/10/29 01:25:40;;;;;;;35.83;6.90;;;7.90;99.90;;;;;;4949383;29;20500;-75
2021/10/29 01:28:12;;;;;;;11.68;6.00;;;7.90;99.90;;;;;;4950440;29;20027;-74
2021/10/29 01:30:39;;;;;;;13.48;6.05;;;7.90;99.90;;;;;;4964875;29;20499;-76
2021/10/29 01:33:05;;;;;;;14.85;6.55;;;7.80;99.90;;;;;;4950350;29;20043;-75
2021/10/29 01:35:32;;;;;;;14.85;7.35;;;7.80;99.90;;;;;;4965553;29;20023;-74
2021/10/29 01:37:58;;;;;;;15.98;7.65;;;7.80;99.90;;;;;;4950136;29;20507;-75
2021/10/29 01:40:24;;;;;;;13.88;6.57;;;7.80;99.90;;;;;;4964851;29;20051;-74
2021/10/29 01:42:49;;;;;;;15.27;6.70;;;7.80;99.90;;;;;;4964921;29;20039;-75
2021/10/29 01:45:16;;;;;;;18.27;6.63;;;7.80;99.90;;;;;;4964717;29;20023;-75
2021/10/29 01:47:42;;;;;;;21.40;8.55;;;7.80;99.90;;;;;;4949933;29;20039;-74
2021/10/29 01:50:09;;;;;;;18.17;7.38;;;7.70;99.90;;;;;;4949720;29;20039;-76
2021/10/29 01:52:35;;;;;;;18.00;7.68;;;7.80;99.90;;;;;;4964330;29;20599;-75
2021/10/29 01:55:03;;;;;;;17.92;7.15;;;7.70;99.90;;;;;;4949630;29;20078;-75
2021/10/29 01:57:31;;;;;;;21.02;7.68;;;7.70;99.90;;;;;;4949754;29;20082;-76
2021/10/29 01:59:56;;;;;;;18.23;7.78;;;7.70;99.90;;;;;;4964749;29;20110;-75
2021/10/29 02:02:22;;;;;;;27.23;8.77;;;7.60;99.90;;;;;;4949798;29;20035;-75
2021/10/29 02:04:47;;;;;;;20.33;7.53;;;7.60;99.90;;;;;;4950114;29;20027;-75
2021/10/29 02:07:13;;;;;;;18.15;8.02;;;7.60;99.90;;;;;;4949713;29;20076;-76
2021/10/29 02:09:39;;;;;;;18.67;7.65;;;7.60;99.90;;;;;;4949876;29;20039;-76
2021/10/29 02:12:04;;;;;;;19.08;7.63;;;7.60;99.90;;;;;;4949405;29;20027;-74
2021/10/29 02:14:31;;;;;;;18.92;8.40;;;7.60;99.90;;;;;;4963429;29;20430;-75
2021/10/29 02:16:57;;;;;;;22.65;7.57;;;7.60;99.90;;;;;;4949249;29;20039;-75
2021/10/29 02:19:22;;;;;;;23.48;8.07;;;7.50;99.90;;;;;;4964239;29;20042;-75
2021/10/29 02:21:48;;;;;;;20.95;9.07;;;7.50;99.90;;;;;;4948829;29;20046;-74
2021/10/29 02:24:13;;;;;;;20.98;9.05;;;7.50;99.90;;;;;;4964217;29;20042;-74
2021/10/29 02:26:39;;;;;;;26.17;8.75;;;7.50;99.90;;;;;;4964084;29;20035;-75
2021/10/29 02:29:05;;;;;;;19.27;8.85;;;7.50;99.90;;;;;;4949463;29;20480;-76
2021/10/29 02:31:32;;;;;;;17.73;8.15;;;7.50;99.90;;;;;;4949673;29;20042;-75
2021/10/29 02:33:58;;;;;;;18.27;8.13;;;7.50;99.90;;;;;;4963294;28;20388;-73
2021/10/29 02:36:27;;;;;;;26.67;8.70;;;7.50;99.90;;;;;;4963718;29;20039;-74
2021/10/29 02:38:53;;;;;;;18.50;8.45;;;7.50;99.90;;;;;;4963899;29;20031;-74
2021/10/29 02:41:19;;;;;;;19.17;7.35;;;7.50;99.90;;;;;;4948411;29;20091;-74
2021/10/29 02:43:45;;;;;;;19.95;7.53;;;7.50;99.90;;;;;;4963442;29;20032;-73
2021/10/29 02:46:11;;;;;;;23.80;8.18;;;7.50;99.90;;;;;;4963373;29;20100;-73
2021/10/29 02:48:36;;;;;;;19.88;7.47;;;7.40;99.90;;;;;;4949087;29;20032;-74
2021/10/29 02:51:02;;;;;;;18.02;7.72;;;7.50;99.90;;;;;;4963579;29;20032;-74
2021/10/29 02:53:30;;;;;;;22.88;8.20;;;7.40;99.90;;;;;;4949102;29;20059;-73
2021/10/29 02:55:56;;;;;;;18.77;7.70;;;7.40;99.90;;;;;;4948967;29;20464;-74
2021/10/29 02:58:22;;;;;;;19.50;8.23;;;7.40;99.90;;;;;;4948836;29;20099;-75
2021/10/29 03:00:47;;;;;;;16.15;7.18;;;7.40;99.90;;;;;;4948739;29;20031;-76
2021/10/29 03:03:13;;;;;;;19.08;7.22;;;7.40;99.90;;;;;;4948801;29;20047;-75
2021/10/29 03:05:39;;;;;;;17.58;7.88;;;7.30;99.90;;;;;;4947892;29;20028;-73
2021/10/29 03:08:05;;;;;;;20.23;8.73;;;7.30;99.90;;;;;;4948332;29;20031;-74
2021/10/29 03:10:32;;;;;;;18.60;7.72;;;7.40;99.90;;;;;;4962726;29;20028;-75
2021/10/29 03:12:58;;;;;;;17.63;7.82;;;7.20;99.90;;;;;;4947388;29;20091;-74
2021/10/29 03:15:23;;;;;;;22.38;8.05;;;7.30;99.90;;;;;;4948406;29;20036;-73
2021/10/29 03:17:49;;;;;;;20.42;8.63;;;7.30;99.90;;;;;;4963191;29;20036;-73
2021/10/29 03:20:14;;;;;;;17.17;7.53;;;7.30;99.90;;;;;;4948455;29;20023;-74
2021/10/29 03:22:40;;;;;;;24.10;7.88;;;7.30;99.90;;;;;;4947168;29;20080;-74
2021/10/29 03:25:07;;;;;;;18.65;8.13;;;7.20;99.90;;;;;;4963290;29;20031;-74
2021/10/29 03:27:35;;;;;;;19.55;8.30;;;7.30;99.90;;;;;;4963081;29;20122;-74
2021/10/29 03:30:01;;;;;;;13.90;5.95;;;7.30;99.90;;;;;;4947973;29;20369;-74
2021/10/29 03:32:26;;;;;;;15.88;7.15;;;7.20;99.90;;;;;;4962389;29;20103;-74
2021/10/29 03:34:53;;;;;;;22.60;7.75;;;7.20;99.90;;;;;;4962696;29;20036;-73
2021/10/29 03:40:34;;;;;;;20.08;7.63;;;7.20;99.90;;;;;;4965261;29;20031;-74
2021/10/29 03:45:30;;;;;;;16.65;7.03;;;7.20;99.90;;;;;;4955195;29;20062;-75
2021/10/29 03:47:57;;;;;;;18.42;7.80;;;7.20;99.90;;;;;;4947735;29;20515;-74
2021/10/29 03:50:26;;;;;;;24.10;7.32;;;7.20;99.90;;;;;;4962217;29;20637;-75
2021/10/29 03:53:04;;;;;;;20.63;7.35;;;7.20;99.90;;;;;;4947477;29;20030;-75
2021/10/29 03:55:38;;;;;;;17.65;6.93;;;7.30;99.90;;;;;;4947796;29;20052;-76
2021/10/29 03:58:04;;;;;;;21.08;6.50;;;7.20;99.90;;;;;;4947961;29;20028;-74
2021/10/29 04:00:31;;;;;;;23.27;8.10;;;7.10;99.90;;;;;;4947596;29;20118;-75
2021/10/29 04:03:01;;;;;;;13.98;6.68;;;7.10;99.90;;;;;;4961973;29;20039;-75
2021/10/29 04:05:31;;;;;;;20.65;7.63;;;7.10;99.90;;;;;;4947500;29;20067;-74
2021/10/29 04:07:57;;;;;;;14.70;6.38;;;7.10;99.90;;;;;;4961835;29;20027;-75
2021/10/29 04:10:26;;;;;;;17.10;7.43;;;7.00;99.90;;;;;;4947766;29;20071;-74
2021/10/29 04:12:56;;;;;;;19.60;8.05;;;7.00;99.90;;;;;;4962011;29;20031;-74
2021/10/29 04:15:28;;;;;;;22.30;8.30;;;7.00;99.90;;;;;;4962043;29;20039;-76
2021/10/29 04:17:53;;;;;;;19.77;8.25;;;6.90;99.90;;;;;;4947600;29;20083;-73
2021/10/29 04:20:19;;;;;;;16.60;6.97;;;6.80;99.90;;;;;;4946902;29;20027;-74
2021/10/29 04:22:45;;;;;;;14.60;7.18;;;6.80;99.90;;;;;;4946853;29;20048;-74
2021/10/29 04:25:11;;;;;;;22.25;7.60;;;6.80;99.90;;;;;;4947152;29;20028;-75
2021/10/29 04:27:44;;;;;;;19.52;8.13;;;6.70;99.90;;;;;;4944914;29;20039;-74
2021/10/29 04:30:15;;;;;;;21.92;7.75;;;6.70;99.90;;;;;;4947118;29;20377;-75
2021/10/29 04:32:41;;;;;;;20.27;7.93;;;6.70;99.90;;;;;;4961885;29;20055;-74
2021/10/29 04:35:07;;;;;;;17.63;7.03;;;6.70;99.90;;;;;;4961433;29;20039;-76
2021/10/29 04:37:33;;;;;;;23.05;8.45;;;6.70;99.90;;;;;;4946898;29;20071;-74
2021/10/29 04:39:59;;;;;;;24.92;8.48;;;6.70;99.90;;;;;;4962043;29;20031;-75
2021/10/29 04:42:25;;;;;;;16.80;7.05;;;6.70;99.90;;;;;;4944811;29;20024;-74
2021/10/29 04:44:50;;;;;;;20.60;7.40;;;6.70;99.90;;;;;;4945760;29;20106;-74
2021/10/29 04:47:16;;;;;;;16.63;7.30;;;6.70;99.90;;;;;;4929927;29;20028;-74
2021/10/29 04:49:41;;;;;;;18.50;6.53;;;6.70;99.90;;;;;;4946691;29;20032;-74
2021/10/29 04:52:08;;;;;;;22.05;8.00;;;6.70;99.90;;;;;;4945754;29;20064;-76
2021/10/29 04:54:33;;;;;;;15.30;6.28;;;6.70;99.90;;;;;;4945616;29;20042;-75
2021/10/29 04:57:00;;;;;;;17.63;6.22;;;6.60;99.90;;;;;;4945986;29;20040;-76
2021/10/29 04:59:26;;;;;;;14.40;6.88;;;6.60;99.90;;;;;;4946528;29;20028;-74
2021/10/29 05:01:51;;;;;;;16.23;7.00;;;6.70;99.90;;;;;;4961718;29;20043;-74
2021/10/29 05:04:19;;;;;;;26.75;6.97;;;6.60;99.90;;;;;;4961177;29;20035;-75
2021/10/29 05:06:46;;;;;;;16.33;6.78;;;6.60;99.90;;;;;;4946808;29;20023;-75
2021/10/29 05:09:12;;;;;;;21.30;8.43;;;6.60;99.90;;;;;;4937697;29;20028;-75
2021/10/29 05:11:37;;;;;;;13.32;6.20;;;6.60;99.90;;;;;;4927011;29;20043;-75
2021/10/29 05:14:04;;;;;;;20.55;7.57;;;6.60;99.90;;;;;;4941984;29;20032;-76
2021/10/29 05:16:30;;;;;;;20.48;8.27;;;6.60;99.90;;;;;;4927575;29;20056;-76
2021/10/29 05:18:57;;;;;;;20.55;8.23;;;6.50;99.90;;;;;;4927764;29;20635;-76
2021/10/29 05:21:22;;;;;;;19.73;7.55;;;6.60;99.90;;;;;;4927021;29;20092;-75
2021/10/29 05:23:48;;;;;;;24.55;7.63;;;6.60;99.90;;;;;;4941969;29;20064;-76
2021/10/29 05:26:14;;;;;;;16.58;7.80;;;6.60;99.90;;;;;;4927599;29;20056;-76
2021/10/29 05:28:43;;;;;;;17.55;7.72;;;6.60;99.90;;;;;;4927164;29;20028;-76
2021/10/29 05:31:09;;;;;;;21.92;8.10;;;6.60;99.90;;;;;;4927632;29;20024;-76
2021/10/29 05:33:35;;;;;;;17.85;7.38;;;6.60;99.90;;;;;;4928213;29;20553;-74
2021/10/29 05:36:01;;;;;;;14.15;6.65;;;6.60;99.90;;;;;;4928143;29;20055;-75
2021/10/29 05:38:26;;;;;;;25.45;8.13;;;6.60;99.90;;;;;;4927499;29;20084;-75
2021/10/29 05:40:54;;;;;;;15.38;7.28;;;6.60;99.90;;;;;;4927493;29;20032;-76
2021/10/29 05:43:19;;;;;;;23.73;8.52;;;6.60;99.90;;;;;;4942289;29;20835;-75
2021/10/29 05:45:45;;;;;;;20.67;8.23;;;6.50;99.90;;;;;;4941675;29;20096;-77
2021/10/29 05:48:10;;;;;;;18.50;6.97;;;6.50;99.90;;;;;;4927285;29;20043;-75
2021/10/29 05:50:38;;;;;;;18.67;7.53;;;6.50;99.90;;;;;;4927506;29;20084;-75
2021/10/29 05:53:07;;;;;;;15.68;7.15;;;6.50;99.90;;;;;;4941776;29;20032;-74
2021/10/29 05:55:35;;;;;;;17.63;7.57;;;6.60;99.90;;;;;;4947343;29;20499;-77
2021/10/29 05:58:03;;;;;;;18.02;7.05;;;6.60;99.90;;;;;;4944881;29;20074;-76
2021/10/29 06:00:31;;;;;;;16.17;7.43;;;6.60;99.90;;;;;;4945698;29;20076;-74
2021/10/29 06:03:09;;;;;;;23.95;7.28;;;6.50;99.90;;;;;;4959676;29;20050;-75
2021/10/29 06:05:34;;;;;;;17.48;6.90;;;6.50;99.90;;;;;;4935019;29;20027;-75
2021/10/29 06:08:01;;;;;;;16.15;6.97;;;6.60;99.90;;;;;;4944012;29;20032;-76
2021/10/29 06:10:26;;;;;;;17.58;7.30;;;6.50;99.90;;;;;;4943525;29;20036;-76
2021/10/29 06:12:52;;;;;;;16.00;6.95;;;6.50;99.90;;;;;;4948692;29;20083;-76
2021/10/29 06:15:19;;;;;;;18.30;7.10;;;6.60;99.90;;;;;;4930674;29;20032;-76
2021/10/29 06:17:46;;;;;;;17.38;6.47;;;6.60;99.90;;;;;;4945530;29;20103;-76
2021/10/29 06:20:13;;;;;;;18.60;7.82;;;6.60;99.90;;;;;;4942007;29;20033;-76
2021/10/29 06:22:43;;;;;;;16.23;6.00;;;6.60;99.90;;;;;;4929389;29;20060;-75
2021/10/29 06:25:16;;;;;;;19.17;7.57;;;6.60;99.90;;;;;;4944833;29;20429;-76
2021/10/29 06:31:04;;;;;;;20.52;7.93;;;6.60;99.90;;;;;;4941106;29;20304;-76
2021/10/29 06:33:30;;;;;;;16.02;6.57;;;6.60;99.90;;;;;;4959600;29;20035;-76
2021/10/29 06:35:56;;;;;;;16.90;7.00;;;6.70;99.90;;;;;;4948163;29;20048;-76
2021/10/29 06:38:22;;;;;;;17.58;6.60;;;6.70;99.90;;;;;;4963449;29;20460;-77
2021/10/29 06:40:49;;;;;;;19.50;6.55;;;6.70;99.90;;;;;;4948225;29;20023;-75
2021/10/29 06:43:23;;;;;;;17.75;7.10;;;6.70;99.90;;;;;;4948907;29;20020;-76
2021/10/29 06:59:44;;;;;;;17.08;5.95;;;6.80;99.90;;;;;;4930638;29;20043;-76
2021/10/29 07:02:35;;;;;;;16.73;6.25;;;6.80;99.90;;;;;;4931835;29;20029;-76
2021/10/29 07:40:21;;;;;;;17.17;6.10;;;8.00;99.90;;;;;;4948973;29;20038;-77
2021/10/29 07:42:58;;;;;;;18.52;6.95;;;8.10;99.90;;;;;;4945446;29;20055;-77
2021/10/29 07:45:37;;;;;;;19.50;7.35;;;8.20;99.90;;;;;;4941213;29;20028;-78
2021/10/29 07:48:04;;;;;;;12.27;5.78;;;8.30;99.90;;;;;;4943341;29;20039;-76
2021/10/29 07:50:31;;;;;;;15.65;6.65;;;8.30;99.90;;;;;;4962189;29;20122;-78
2021/10/29 07:52:58;;;;;;;19.38;7.07;;;8.40;99.90;;;;;;4941980;29;20035;-78
2021/10/29 07:55:25;;;;;;;11.23;5.45;;;8.50;99.90;;;;;;4928104;29;20040;-77
2021/10/29 07:57:52;;;;;;;13.70;5.45;;;8.60;99.90;;;;;;4947189;29;20043;-76
2021/10/29 08:00:20;;;;;;;14.32;6.50;;;8.80;99.90;;;;;;4947130;29;20036;-75
2021/10/29 08:02:47;;;;;;;14.45;6.22;;;9.00;99.90;;;;;;4947495;29;20028;-76
2021/10/29 08:05:13;;;;;;;16.65;6.20;;;9.40;99.90;;;;;;4947967;29;20031;-77
2021/10/29 08:07:40;;;;;;;19.73;5.88;;;9.70;99.90;;;;;;4945772;29;20118;-76
2021/10/29 08:10:09;;;;;;;14.13;5.43;;;9.90;99.90;;;;;;4929644;29;20024;-76
2021/10/29 08:12:37;;;;;;;12.88;5.97;;;10.00;99.90;;;;;;4928418;29;20055;-75
2021/10/29 08:15:05;;;;;;;13.93;5.68;;;10.00;99.90;;;;;;4937558;29;20102;-76
2021/10/29 08:17:33;;;;;;;21.05;6.35;;;10.00;99.90;;;;;;4947522;29;20079;-76
2021/10/29 08:20:05;;;;;;;11.73;5.45;;;9.90;99.90;;;;;;4947152;29;20028;-76
2021/10/29 08:22:32;;;;;;;13.10;5.32;;;9.90;99.90;;;;;;4946937;29;20044;-76
2021/10/29 08:24:58;;;;;;;21.20;6.97;;;9.90;99.90;;;;;;4962233;29;20072;-76
2021/10/29 08:27:25;;;;;;;13.45;6.07;;;9.90;99.90;;;;;;4947448;29;20456;-74
2021/10/29 08:29:51;;;;;;;18.05;6.07;;;10.00;99.90;;;;;;4960374;28;20042;-75
2021/10/29 08:32:17;;;;;;;12.88;5.72;;;10.10;99.90;;;;;;4945448;29;20032;-75
2021/10/29 08:34:43;;;;;;;15.52;5.15;;;10.20;99.90;;;;;;4947203;29;20067;-76
2021/10/29 08:37:10;;;;;;;20.92;6.30;;;10.30;99.90;;;;;;4940768;29;20137;-76
2021/10/29 08:39:38;;;;;;;18.83;6.55;;;10.40;99.90;;;;;;4953018;29;20036;-77
2021/10/29 08:42:06;;;;;;;14.68;5.95;;;10.50;99.90;;;;;;4951165;29;20032;-76
2021/10/29 08:44:34;;;;;;;14.02;5.35;;;10.70;99.90;;;;;;4946877;29;20023;-73
2021/10/29 08:47:02;;;;;;;9.13;4.38;;;10.90;99.90;;;;;;4953667;29;20039;-75
2021/10/29 08:49:34;;;;;;;18.00;6.05;;;11.10;99.90;;;;;;4950864;29;20492;-75
2021/10/29 08:52:05;;;;;;;21.08;6.13;;;11.30;99.90;;;;;;4951474;29;20088;-76
2021/10/29 08:54:34;;;;;;;13.80;6.47;;;11.50;99.90;;;;;;4959086;28;20047;-81
2021/10/29 08:57:03;;;;;;;15.23;5.78;;;11.70;99.90;;;;;;4938490;29;20047;-75
2021/10/29 08:59:33;;;;;;;13.65;5.88;;;11.80;99.90;;;;;;4960378;28;20054;-74
2021/10/29 09:02:26;;;;;;;22.77;7.05;;;11.80;99.90;;;;;;4944583;29;20091;-77
2021/10/29 09:05:06;;;;;;;18.13;6.87;;;11.80;99.90;;;;;;4942580;29;20051;-75
2021/10/29 09:32:43;;;;;;;13.63;5.47;;;12.10;99.90;;;;;;4946130;29;20038;-75
2021/10/29 09:35:15;;;;;;;14.85;6.22;;;12.20;99.90;;;;;;4938424;29;20118;-74
2021/10/29 09:38:06;;;;;;;10.27;5.22;;;12.30;99.90;;;;;;4935706;29;20048;-74
2021/10/29 09:40:38;;;;;;;16.52;6.57;;;12.50;99.90;;;;;;4943623;29;20027;-74
2021/10/29 09:43:23;;;;;;;11.70;5.65;;;12.70;99.90;;;;;;4944956;29;20068;-75
2021/10/29 09:45:58;;;;;;;13.20;5.53;;;12.70;99.90;;;;;;4946438;29;20543;-73
2021/10/29 09:48:35;;;;;;;13.02;5.38;;;12.80;99.90;;;;;;4947858;29;20040;-74
2021/10/29 09:51:07;;;;;;;13.48;6.47;;;12.90;99.90;;;;;;4946031;29;20501;-74
2021/10/29 09:53:46;;;;;;;12.98;5.85;;;13.00;99.90;;;;;;4958644;29;20087;-75
2021/10/29 09:58:50;;;;;;;18.52;5.35;;;13.30;99.90;;;;;;4949218;29;20488;-73
2021/10/29 10:01:16;;;;;;;14.60;6.43;;;13.50;99.90;;;;;;4936650;29;20036;-74
2021/10/29 10:03:43;;;;;;;13.93;6.28;;;13.80;99.90;;;;;;4954602;29;20032;-75
2021/10/29 10:06:09;;;;;;;14.07;6.15;;;13.80;99.90;;;;;;4934928;29;20548;-73
2021/10/29 10:08:38;;;;;;;17.20;6.57;;;13.80;99.90;;;;;;4939416;29;20024;-74
2021/10/29 10:11:05;;;;;;;12.23;5.65;;;13.90;99.90;;;;;;4945032;29;20096;-75
2021/10/29 10:13:33;;;;;;;11.18;5.40;;;14.00;99.90;;;;;;4942572;28;20086;-75
2021/10/29 10:16:02;;;;;;;22.20;6.03;;;14.00;99.90;;;;;;4948284;29;20412;-75
2021/10/29 10:18:29;;;;;;;15.10;5.75;;;14.00;99.90;;;;;;4948982;29;20033;-75
2021/10/29 10:20:58;;;;;;;9.50;5.10;;;14.00;99.90;;;;;;4948194;29;20032;-74
2021/10/29 10:23:30;;;;;;;12.10;6.32;;;14.10;99.90;;;;;;4962929;29;20111;-73
2021/10/29 10:26:16;;;;;;;20.92;6.20;;;14.10;99.90;;;;;;4929837;29;20024;-74
2021/10/29 10:45:53;;;;;;;10.73;5.95;;;14.70;99.90;;;;;;4949281;29;20067;-75
2021/10/29 10:54:19;;;;;;;13.13;5.22;;;15.50;99.90;;;;;;4948772;29;20099;-75
2021/10/29 10:57:26;;;;;;;11.43;5.22;;;15.90;99.90;;;;;;4948370;29;20040;-75
2021/10/29 11:11:16;;;;;;;10.48;5.18;;;16.90;99.90;;;;;;4948598;29;20052;-76
2021/10/29 11:13:45;;;;;;;15.65;5.75;;;17.00;99.90;;;;;;4947440;29;20039;-76
2021/10/29 11:16:25;;;;;;;14.02;5.35;;;17.20;99.90;;;;;;4962493;29;20043;-78
2021/10/29 11:19:11;;;;;;;12.15;5.65;;;17.50;99.90;;;;;;4948324;29;20059;-72
2021/10/29 11:21:53;;;;;;;12.45;5.38;;;17.90;99.90;;;;;;4947832;29;20183;-74
2021/10/29 11:24:36;;;;;;;11.23;4.13;;;18.00;99.90;;;;;;4948298;29;20032;-73
2021/10/29 11:27:15;;;;;;;9.18;4.20;;;18.10;99.90;;;;;;4963330;29;20476;-80
2021/10/29 11:29:52;;;;;;;9.82;4.57;;;18.30;99.90;;;;;;4948221;29;20034;-75
2021/10/29 11:32:23;;;;;;;13.85;5.60;;;18.50;99.90;;;;;;4947972;29;20075;-75
2021/10/29 11:34:52;;;;;;;12.35;4.97;;;18.90;99.90;;;;;;4948270;29;20043;-76
2021/10/29 11:37:18;;;;;;;14.15;4.78;;;19.20;99.90;;;;;;4947759;29;20527;-77
2021/10/29 11:39:44;;;;;;;11.55;4.07;;;19.40;99.90;;;;;;4947637;29;20032;-76
2021/10/29 11:42:10;;;;;;;8.23;3.97;;;19.40;99.90;;;;;;4961669;29;20028;-77
2021/10/29 11:44:40;;;;;;;13.82;4.28;;;19.30;99.90;;;;;;4945874;29;20035;-74
2021/10/29 11:47:11;;;;;;;8.18;3.50;;;19.10;99.90;;;;;;4938656;29;20092;-77
2021/10/29 11:49:37;;;;;;;6.70;3.50;;;19.00;99.90;;;;;;4946323;29;20362;-74
2021/10/29 11:52:04;;;;;;;6.57;3.85;;;18.70;99.90;;;;;;4937185;29;20083;-73
2021/10/29 11:54:37;;;;;;;6.22;3.50;;;18.40;99.90;;;;;;4947379;29;20027;-78
2021/10/29 12:05:57;;;;;;;20.23;4.45;;;17.30;99.90;;;;;;4948548;29;20633;-76
2021/10/29 12:08:28;;;;;;;6.30;4.05;;;17.30;99.90;;;;;;4946532;29;20425;-76
2021/10/29 12:11:07;;;;;;;9.55;4.70;;;17.20;99.90;;;;;;4947719;29;20028;-75
2021/10/29 12:13:40;;;;;;;8.23;3.55;;;17.00;99.90;;;;;;4942126;29;20024;-75
2021/10/29 12:16:19;;;;;;;11.32;4.10;;;17.00;99.90;;;;;;4928881;29;20039;-76
2021/10/29 12:19:01;;;;;;;8.20;3.78;;;17.10;99.90;;;;;;4930166;29;20070;-74
2021/10/29 12:21:38;;;;;;;10.57;4.50;;;17.40;99.90;;;;;;4940802;29;20051;-75
2021/10/29 12:24:08;;;;;;;20.55;4.40;;;17.70;99.90;;;;;;4952841;29;20054;-75
2021/10/29 12:26:38;;;;;;;7.22;3.55;;;18.00;99.90;;;;;;4934636;29;20096;-74
2021/10/29 12:29:14;;;;;;;10.18;4.32;;;18.30;99.90;;;;;;4962040;29;20027;-76
2021/10/29 12:32:27;;;;;;;10.93;4.25;;;18.50;99.90;;;;;;4947301;29;20118;-75
2021/10/29 13:02:54;;;;;;;8.50;3.45;;;19.40;99.90;;;;;;4936123;29;20504;-73
2021/10/29 13:05:20;;;;;;;7.65;3.92;;;19.40;99.90;;;;;;4927742;29;20032;-75
2021/10/29 13:07:46;;;;;;;8.18;3.53;;;19.30;99.90;;;;;;4941914;29;20032;-74
2021/10/29 13:10:12;;;;;;;7.80;3.85;;;19.40;99.90;;;;;;4926766;29;20080;-74
2021/10/29 13:12:58;;;;;;;4.97;3.55;;;19.40;99.90;;;;;;4942749;29;20058;-76
2021/10/29 13:15:24;;;;;;;7.20;3.88;;;19.60;99.90;;;;;;4927964;29;20388;-74
2021/10/29 13:18:00;;;;;;;6.50;3.33;;;19.70;99.90;;;;;;4928136;29;20036;-75
2021/10/29 13:23:37;;;;;;;7.40;3.75;;;20.10;99.90;;;;;;4952275;29;20067;-75
2021/10/29 13:28:56;;;;;;;9.40;3.35;;;20.50;99.90;;;;;;4950165;29;20028;-77
2021/10/29 13:53:29;;;;;;;5.10;2.75;;;22.20;99.90;;;;;;4950895;29;20035;-75
2021/10/29 13:56:05;;;;;;;6.57;3.22;;;22.00;99.90;;;;;;4948916;29;20035;-74
2021/10/29 14:35:22;;;;;;;4.50;2.33;;;16.90;99.90;;;;;;4949185;29;20038;-74
2021/10/29 14:37:59;;;;;;;5.80;2.38;;;17.10;99.90;;;;;;4947649;29;20503;-77
2021/10/29 14:43:18;;;;;;;6.75;3.17;;;17.90;99.90;;;;;;4928645;29;20047;-75
2021/10/29 14:49:02;;;;;;;;;;;18.60;99.90;;;;;;4929094;29;20047;-76
2021/10/29 15:28:14;;;;;;;7.68;2.80;;;17.40;99.90;;;;;;4942621;29;20040;-73
2021/10/29 15:30:47;;;;;;;6.65;3.17;;;17.30;99.90;;;;;;4945854;29;20107;-75
2021/10/29 15:41:36;;;;;;;4.63;2.50;;;16.40;99.90;;;;;;4945934;29;20046;-76
2021/10/29 15:44:20;;;;;;;7.25;2.67;;;16.40;99.90;;;;;;4960547;29;20028;-76
2021/10/29 15:51:51;;;;;;;12.77;2.40;;;15.80;99.90;;;;;;4945498;29;20034;-74
2021/10/29 15:54:17;;;;;;;5.63;2.30;;;15.80;99.90;;;;;;4945624;29;20028;-75
2021/10/29 16:02:09;;;;;;;3.95;2.60;;;15.40;99.90;;;;;;4938522;29;20543;-75
2021/10/29 16:18:20;;;;;;;6.57;3.05;;;14.90;99.90;;;;;;4946236;29;20555;-74
2021/10/29 16:20:46;;;;;;;9.38;2.65;;;14.80;99.90;;;;;;4944569;29;20036;-73
2021/10/29 16:23:12;;;;;;;5.88;2.72;;;14.70;99.90;;;;;;4951007;29;20072;-75
2021/10/29 16:25:52;;;;;;;5.47;2.47;;;14.60;99.90;;;;;;4926829;29;20036;-73
2021/10/29 16:28:24;;;;;;;3.85;2.28;;;14.60;99.90;;;;;;4927265;29;20465;-74
2021/10/29 16:30:50;;;;;;;6.40;2.85;;;14.50;99.90;;;;;;4927126;29;20567;-74
2021/10/29 16:35:48;;;;;;;9.60;3.55;;;14.40;99.90;;;;;;4926504;29;20068;-74
2021/10/29 16:38:14;;;;;;;4.22;2.17;;;14.40;99.90;;;;;;4926670;29;20044;-74
2021/10/29 16:40:40;;;;;;;5.20;2.45;;;14.30;99.90;;;;;;4926828;29;20039;-76
2021/10/29 16:43:06;;;;;;;4.72;2.60;;;14.20;99.90;;;;;;4926741;29;20028;-75
2021/10/29 16:45:46;;;;;;;4.15;2.40;;;14.20;99.90;;;;;;4926961;29;20091;-75
2021/10/29 16:48:18;;;;;;;4.57;2.63;;;14.10;99.90;;;;;;4926192;29;20039;-74
2021/10/29 16:50:45;;;;;;;7.75;3.30;;;14.10;99.90;;;;;;4926692;29;20028;-74
2021/10/29 16:53:16;;;;;;;4.03;2.72;;;14.00;99.90;;;;;;4939265;29;20030;-75
2021/10/29 16:55:42;;;;;;;8.90;3.13;;;14.00;99.90;;;;;;4945662;29;20024;-72
2021/10/29 16:58:12;;;;;;;7.82;3.25;;;13.90;99.90;;;;;;4939212;29;20040;-74
2021/10/29 17:00:39;;;;;;;7.20;2.92;;;13.90;99.90;;;;;;4928724;29;20122;-74
2021/10/29 17:03:07;;;;;;;13.07;3.10;;;13.90;99.90;;;;;;4960043;29;20035;-75
2021/10/29 17:05:33;;;;;;;6.38;2.83;;;13.80;99.90;;;;;;4954066;29;20028;-75
2021/10/29 17:08:04;;;;;;;6.50;3.33;;;13.70;99.90;;;;;;4940606;29;20910;-75
2021/10/29 17:10:40;;;;;;;9.77;3.13;;;13.70;99.90;;;;;;4926329;29;20036;-74
2021/10/29 17:13:09;;;;;;;6.63;2.92;;;13.60;99.90;;;;;;4940969;29;20115;-75
2021/10/29 17:15:36;;;;;;;9.48;2.92;;;13.60;99.90;;;;;;4926229;29;20032;-74
2021/10/29 17:18:04;;;;;;;5.25;2.78;;;13.50;99.90;;;;;;4926571;29;20036;-74
2021/10/29 17:20:32;;;;;;;6.63;3.00;;;13.40;99.90;;;;;;4924744;29;20028;-76
2021/10/29 17:22:58;;;;;;;3.72;2.53;;;13.40;99.90;;;;;;4940187;29;20080;-74
2021/10/29 17:25:23;;;;;;;5.38;2.92;;;13.40;99.90;;;;;;4940468;29;20032;-73
2021/10/29 17:27:49;;;;;;;10.50;3.55;;;13.30;99.90;;;;;;4926111;29;20067;-74
2021/10/29 17:30:25;;;;;;;9.82;3.33;;;13.30;99.90;;;;;;4926142;29;20080;-75
2021/10/29 17:32:51;;;;;;;5.85;2.90;;;13.20;99.90;;;;;;4926111;29;20036;-73
2021/10/29 17:35:19;;;;;;;5.82;3.22;;;13.20;99.90;;;;;;4924581;29;20034;-73
2021/10/29 17:37:46;;;;;;;5.53;3.72;;;13.10;99.90;;;;;;4942712;29;20058;-74
2021/10/29 17:40:21;;;;;;;5.38;2.65;;;13.10;99.90;;;;;;4956821;29;20040;-76
2021/10/29 17:42:47;;;;;;;6.55;2.90;;;13.00;99.90;;;;;;4926312;29;20032;-74
2021/10/29 17:45:14;;;;;;;6.82;3.22;;;13.00;99.90;;;;;;4924504;29;20059;-74
2021/10/29 17:47:41;;;;;;;15.40;3.22;;;13.00;99.90;;;;;;4925605;29;20046;-74
2021/10/29 17:50:08;;;;;;;7.85;3.45;;;13.00;99.90;;;;;;4926147;29;20020;-74
2021/10/29 17:52:35;;;;;;;6.70;3.80;;;13.00;99.90;;;;;;4926255;29;20036;-74